Airfield :
LOGIN :

Register | Disclaimer

   EN    FR    IT 

 










Legend :    VFR   Marginal VFR   IFR   Intensive IFR   Very Intensive IFR
Visi :
Ceiling :
>= 8 km
>= 3000ft
5 to 8 km
1000 to 3000 ft
1500m to 5 km
500 to 1000 ft
800 to 1500m
200 to 500 ft
< 800m
< 200 ft
Symbols :   Thunderstorms  Fog  Heavy snow  Heavy precipitations  Wind > 20 kt
SIGMETs :     Misc.  Thunderstorms  Icing  Turbulence  Mountain Waves  Volcanic Ashes






- Airport Elevation : 288 ft
- IATA code : BZZ


EGVN - RAF Brize Norton

CURRENT METAR :
  • 282220Z 21009KT 9999 -DZ OVC007 11/10 Q1009 NOSIG RMK GRN GRN

EXPIRED METARs :
  • 282150Z 20008KT 9999 OVC006 11/10 Q1009 TEMPO BKN007 RMK YLO1 TEMPO GRN
  • 282120Z 20009KT 9999 OVC006 11/11 Q1009 TEMPO BKN007
  • 282050Z 20009KT 9999 -DZ OVC004 11/11 Q1010 TEMPO 7000 -DZ RMK YLO2 TEMPO YLO2
  • 282020Z 21008KT 7000 OVC004 11/11 Q1010 TEMPO 9999 NSW BKN005
  • 281950Z 20008KT 9999 OVC004 11/11 Q1011 TEMPO BKN005 RMK YLO2 TEMPO YLO1
  • 281920Z AUTO 21007KT 7000 BR OVC004/// 11/11 Q1011
  • 281850Z 21006KT 7000 -DZ BKN005 11/10 Q1011 TEMPO 3000 DZ BKN004 RMK YLO1 TEMPO YLO2
  • 281820Z 21008KT 9999 BKN006 11/10 Q1012 NOSIG RMK YLO1 YLO1
  • 281750Z 20007KT 9999 -RA BKN007 11/10 Q1012 TEMPO 5000 RADZ BKN006 RMK GRN TEMPO YLO1
  • 281720Z 21009KT 9999 -RADZ BKN007 11/10 Q1012 TEMPO 3000 RADZ BKN006 RMK GRN TEMPO YLO1

TAF TAF EGVN
Valid from the 28 at 21:00 until the 29 at 21:00 UTC


281943Z 2821/2921 22012KT 9999 BKN008
TEMPO 2821/2823 5000 -DZ BKN006
PROB40
TEMPO 2821/2823 3000 DZ BKN004
PROB30
TEMPO 2823/2902 FEW012
TEMPO 2902/2905 7000 -RA
PROB30
TEMPO 2902/2905 3000 RADZ BKN006
BECMG 2904/2907 FEW010 BKN040
PROB40
TEMPO 2907/2913 7000 -RADZ SCT013
PROB30
TEMPO 2913/2920 7000 SHRA SCT015



MET'MAP, your aeronautical weather chart ! - Copyright ORBIFLY December 2007 - Disclaimer

ORBIFLY MET'MAP TEAM :

Programming & Development : Alexandra Zaïnal
Original concept : Baudouin d'Aumeries
Technical & hardware support : Manuel Goepfert
Assistance : Marc-Olivier Méhu




SOURCES & CREDITS :

   NOAA